Time,TemperatureF,DewpointF,PressureIn,WindDirection,WindDirectionDegrees,WindSpeedMPH,WindSpeedGustMPH,Humidity,HourlyPrecipIn,Conditions,Clouds,dailyrainin,SoftwareType,DateUTC
2013-01-11 00:00:00,34.3,27.5,30.31,ESE,112,10.1,12.8,76,0.00,,,0.00,WUHU21623XXSP,2013-01-11 05:00:00,
2013-01-11 00:03:00,34.3,27.5,30.31,ESE,112,11.6,12.8,76,0.00,,,0.00,WUHU21623XXSP,2013-01-11 05:03:00,
2013-01-11 00:08:00,34.7,27.5,30.31,ESE,112,8.3,12.1,75,0.00,,,0.00,WUHU21623XXSP,2013-01-11 05:08:00,
2013-01-11 00:13:00,34.9,27.4,30.30,SE,135,10.1,14.8,74,0.00,,,0.00,WUHU21623XXSP,2013-01-11 05:13:00,
2013-01-11 00:18:00,34.9,27.0,30.30,SE,135,10.7,15.7,73,0.00,,,0.00,WUHU21623XXSP,2013-01-11 05:18:00,
2013-01-11 00:23:00,34.9,27.0,30.30,ESE,112,10.3,15.7,73,0.00,,,0.00,WUHU21623XXSP,2013-01-11 05:23:00,
2013-01-11 00:28:00,34.9,27.0,30.29,ESE,112,9.4,14.8,73,0.00,,,0.00,WUHU21623XXSP,2013-01-11 05:28:00,
2013-01-11 00:33:00,34.9,27.4,30.28,East,90,10.7,14.8,74,0.00,,,0.00,WUHU21623XXSP,2013-01-11 05:33:00,
2013-01-11 00:38:00,34.7,27.5,30.28,ESE,112,8.3,12.8,75,0.00,,,0.00,WUHU21623XXSP,2013-01-11 05:38:00,
2013-01-11 00:43:00,34.9,27.4,30.28,ESE,112,11.4,12.8,74,0.00,,,0.00,WUHU21623XXSP,2013-01-11 05:43:00,
2013-01-11 00:48:00,34.9,27.4,30.28,SE,135,7.6,11.4,74,0.00,,,0.00,WUHU21623XXSP,2013-01-11 05:48:00,
2013-01-11 00:53:00,34.9,27.4,30.28,East,90,3.4,10.7,74,0.00,,,0.00,WUHU21623XXSP,2013-01-11 05:53:00,
2013-01-11 00:58:00,34.9,27.4,30.28,ESE,112,8.3,9.4,74,0.00,,,0.00,WUHU21623XXSP,2013-01-11 05:58:00,
2013-01-11 01:03:00,34.9,27.4,30.28,East,90,5.4,9.4,74,0.00,,,0.00,WUHU21623XXSP,2013-01-11 06:03:00,
2013-01-11 01:10:00,34.9,27.4,30.28,ESE,112,5.4,5.4,74,0.00,,,0.00,WUHU21623XXSP,2013-01-11 06:10:00,
2013-01-11 01:15:00,34.5,27.3,30.26,East,90,1.6,9.2,75,0.00,,,0.00,WUHU21623XXSP,2013-01-11 06:15:00,
2013-01-11 01:20:00,34.5,27.3,30.26,ESE,112,7.6,9.2,75,0.00,,,0.00,WUHU21623XXSP,2013-01-11 06:20:00,
2013-01-11 01:25:00,34.3,27.5,30.26,East,90,2.2,8.9,76,0.00,,,0.00,WUHU21623XXSP,2013-01-11 06:25:00,
2013-01-11 01:30:00,34.3,27.5,30.25,East,90,7.4,11.9,76,0.00,,,0.00,WUHU21623XXSP,2013-01-11 06:30:00,
2013-01-11 01:35:00,34.3,27.5,30.25,East,90,8.1,11.9,76,0.00,,,0.00,WUHU21623XXSP,2013-01-11 06:35:00,
2013-01-11 01:40:00,34.3,27.8,30.24,East,90,11.4,11.4,77,0.00,,,0.00,WUHU21623XXSP,2013-01-11 06:40:00,
2013-01-11 01:45:00,34.3,27.8,30.24,East,90,4.0,12.3,77,0.00,,,0.00,WUHU21623XXSP,2013-01-11 06:45:00,
2013-01-11 01:50:00,34.3,27.8,30.23,ESE,112,5.8,14.3,77,0.00,,,0.00,WUHU21623XXSP,2013-01-11 06:50:00,
2013-01-11 01:55:00,34.3,28.1,30.23,East,90,6.9,14.3,78,0.00,,,0.00,WUHU21623XXSP,2013-01-11 06:55:00,
2013-01-11 02:00:00,34.3,28.1,30.23,ESE,112,5.8,14.3,78,0.00,,,0.00,WUHU21623XXSP,2013-01-11 07:00:00,
2013-01-11 02:05:00,34.3,28.1,30.23,ESE,112,5.8,10.1,78,0.00,,,0.00,WUHU21623XXSP,2013-01-11 07:05:00,
2013-01-11 02:10:00,34.2,27.9,30.22,ESE,112,7.6,7.6,78,0.00,,,0.00,WUHU21623XXSP,2013-01-11 07:10:00,
2013-01-11 02:15:00,34.2,27.9,30.22,East,90,5.4,11.2,78,0.00,,,0.00,WUHU21623XXSP,2013-01-11 07:15:00,
2013-01-11 02:20:00,34.2,27.9,30.21,ENE,67,10.5,13.4,78,0.00,,,0.00,WUHU21623XXSP,2013-01-11 07:20:00,
2013-01-11 02:25:00,34.2,27.9,30.21,ESE,112,6.7,13.4,78,0.00,,,0.00,WUHU21623XXSP,2013-01-11 07:25:00,
2013-01-11 02:31:00,34.0,27.8,30.21,East,90,8.3,10.5,78,0.00,,,0.00,WUHU21623XXSP,2013-01-11 07:31:00,
2013-01-11 02:36:00,34.0,27.8,30.21,ESE,112,3.8,8.3,78,0.00,,,0.00,WUHU21623XXSP,2013-01-11 07:36:00,
2013-01-11 02:41:00,34.0,27.8,30.21,East,90,6.7,8.1,78,0.00,,,0.00,WUHU21623XXSP,2013-01-11 07:41:00,
2013-01-11 02:46:00,34.0,27.8,30.20,ESE,112,5.4,9.2,78,0.00,,,0.00,WUHU21623XXSP,2013-01-11 07:46:00,
2013-01-11 02:51:00,34.2,27.9,30.20,ESE,112,7.8,9.2,78,0.00,,,0.00,WUHU21623XXSP,2013-01-11 07:51:00,
2013-01-11 02:56:00,34.3,27.8,30.20,East,90,8.1,9.4,77,0.00,,,0.00,WUHU21623XXSP,2013-01-11 07:56:00,
2013-01-11 03:01:00,34.3,27.8,30.20,ESE,112,5.6,9.4,77,0.00,,,0.00,WUHU21623XXSP,2013-01-11 08:01:00,
2013-01-11 03:10:00,34.3,27.8,30.20,ESE,112,4.0,4.0,77,0.00,,,0.00,WUHU21623XXSP,2013-01-11 08:10:00,
2013-01-11 03:15:00,34.7,27.8,30.19,ESE,112,7.6,8.1,76,0.00,,,0.00,WUHU21623XXSP,2013-01-11 08:15:00,
2013-01-11 03:20:00,34.9,27.7,30.19,SE,135,5.6,8.1,75,0.00,,,0.00,WUHU21623XXSP,2013-01-11 08:20:00,
2013-01-11 03:25:00,34.9,27.7,30.18,SE,135,3.6,7.8,75,0.00,,,0.00,WUHU21623XXSP,2013-01-11 08:25:00,
2013-01-11 03:30:00,35.2,28.0,30.18,ESE,112,3.8,7.8,75,0.00,,,0.00,WUHU21623XXSP,2013-01-11 08:30:00,
2013-01-11 03:35:00,35.2,28.0,30.18,East,90,2.5,5.8,75,0.00,,,0.00,WUHU21623XXSP,2013-01-11 08:35:00,
2013-01-11 03:40:00,35.1,27.9,30.17,East,90,0.0,5.8,75,0.00,,,0.00,WUHU21623XXSP,2013-01-11 08:40:00,
2013-01-11 03:45:00,35.2,28.0,30.17,East,90,0.0,6.3,75,0.00,,,0.00,WUHU21623XXSP,2013-01-11 08:45:00,
2013-01-11 03:50:00,35.2,28.0,30.17,East,90,0.0,6.3,75,0.00,,,0.00,WUHU21623XXSP,2013-01-11 08:50:00,
2013-01-11 03:56:00,35.2,28.0,30.17,East,90,0.0,4.3,75,0.00,,,0.00,WUHU21623XXSP,2013-01-11 08:56:00,
2013-01-11 04:01:00,35.4,28.2,30.16,East,90,0.0,1.1,75,0.00,,,0.00,WUHU21623XXSP,2013-01-11 09:01:00,
2013-01-11 04:10:00,35.4,28.2,30.16,East,90,0.0,0.0,75,0.00,,,0.00,WUHU21623XXSP,2013-01-11 09:10:00,
2013-01-11 04:15:00,34.9,29.0,30.15,East,90,4.0,7.8,79,0.00,,,0.00,WUHU21623XXSP,2013-01-11 09:15:00,
2013-01-11 04:20:00,34.5,28.9,30.14,East,90,3.6,7.8,80,0.00,,,0.00,WUHU21623XXSP,2013-01-11 09:20:00,
2013-01-11 04:25:00,34.5,28.9,30.14,ENE,67,0.0,6.9,80,0.00,,,0.00,WUHU21623XXSP,2013-01-11 09:25:00,
2013-01-11 04:30:00,34.5,29.2,30.14,East,90,0.0,6.5,81,0.00,,,0.00,WUHU21623XXSP,2013-01-11 09:30:00,
2013-01-11 04:35:00,34.7,29.1,30.14,East,90,0.0,0.7,80,0.00,,,0.00,WUHU21623XXSP,2013-01-11 09:35:00,
2013-01-11 04:40:00,34.9,29.3,30.14,East,90,0.0,0.0,80,0.00,,,0.00,WUHU21623XXSP,2013-01-11 09:40:00,
2013-01-11 04:45:00,34.9,29.6,30.13,East,90,0.0,0.0,81,0.00,,,0.00,WUHU21623XXSP,2013-01-11 09:45:00,
2013-01-11 04:50:00,34.7,29.7,30.13,ESE,112,0.0,0.0,82,0.00,,,0.00,WUHU21623XXSP,2013-01-11 09:50:00,
2013-01-11 04:55:00,34.9,29.9,30.12,ESE,112,4.0,5.6,82,0.00,,,0.00,WUHU21623XXSP,2013-01-11 09:55:00,
2013-01-11 05:00:00,34.9,29.6,30.12,East,90,0.9,5.6,81,0.00,,,0.00,WUHU21623XXSP,2013-01-11 10:00:00,
2013-01-11 05:05:00,34.9,29.6,30.12,East,90,0.9,4.9,81,0.00,,,0.00,WUHU21623XXSP,2013-01-11 10:05:00,
2013-01-11 05:10:00,35.4,29.5,30.12,ESE,112,6.3,6.3,79,0.00,,,0.00,WUHU21623XXSP,2013-01-11 10:10:00,
2013-01-11 05:16:00,36.0,29.7,30.11,East,90,4.0,6.3,78,0.00,,,0.00,WUHU21623XXSP,2013-01-11 10:16:00,
2013-01-11 05:20:00,36.3,29.4,30.10,ESE,112,3.4,7.8,76,0.00,,,0.00,WUHU21623XXSP,2013-01-11 10:20:00,
2013-01-11 05:25:00,36.5,29.3,30.10,ESE,112,4.0,7.8,75,0.00,,,0.00,WUHU21623XXSP,2013-01-11 10:25:00,
2013-01-11 05:30:00,36.7,29.2,30.10,East,90,0.0,6.9,74,0.00,,,0.00,WUHU21623XXSP,2013-01-11 10:30:00,
2013-01-11 05:35:00,37.0,29.8,30.10,ESE,112,0.0,6.9,75,0.00,,,0.00,WUHU21623XXSP,2013-01-11 10:35:00,
2013-01-11 05:40:00,36.9,29.7,30.10,ENE,67,0.0,2.5,75,0.00,,,0.00,WUHU21623XXSP,2013-01-11 10:40:00,
2013-01-11 05:45:00,36.7,29.8,30.09,ENE,67,0.0,0.0,76,0.00,,,0.00,WUHU21623XXSP,2013-01-11 10:45:00,
2013-01-11 05:50:00,36.3,29.4,30.09,ENE,67,0.0,0.0,76,0.00,,,0.00,WUHU21623XXSP,2013-01-11 10:50:00,
2013-01-11 05:56:00,36.0,29.7,30.09,ENE,67,0.0,0.0,78,0.00,,,0.00,WUHU21623XXSP,2013-01-11 10:56:00,
2013-01-11 06:01:00,35.8,29.9,30.08,ENE,67,0.0,0.0,79,0.00,,,0.00,WUHU21623XXSP,2013-01-11 11:01:00,
2013-01-11 06:07:00,35.8,29.9,30.08,ENE,67,0.0,0.0,79,0.00,,,0.00,WUHU21623XXSP,2013-01-11 11:07:00,
2013-01-11 06:12:00,35.6,30.0,30.08,ENE,67,0.0,0.0,80,0.00,,,0.00,WUHU21623XXSP,2013-01-11 11:12:00,
2013-01-11 06:17:00,35.8,30.2,30.08,ENE,67,0.0,1.8,80,0.00,,,0.00,WUHU21623XXSP,2013-01-11 11:17:00,
2013-01-11 06:22:00,35.8,29.9,30.08,ENE,67,0.0,1.8,79,0.00,,,0.00,WUHU21623XXSP,2013-01-11 11:22:00,
2013-01-11 06:27:00,35.8,30.2,30.08,ENE,67,0.0,0.0,80,0.00,,,0.00,WUHU21623XXSP,2013-01-11 11:27:00,
2013-01-11 06:32:00,35.8,30.2,30.08,ENE,67,0.0,0.0,80,0.00,,,0.00,WUHU21623XXSP,2013-01-11 11:32:00,
2013-01-11 06:37:00,35.8,30.2,30.09,ENE,67,0.0,0.0,80,0.00,,,0.00,WUHU21623XXSP,2013-01-11 11:37:00,
2013-01-11 06:42:00,36.0,30.4,30.07,ENE,67,0.0,0.0,80,0.00,,,0.00,WUHU21623XXSP,2013-01-11 11:42:00,
2013-01-11 06:47:00,36.0,30.7,30.07,ENE,67,0.0,3.1,81,0.00,,,0.00,WUHU21623XXSP,2013-01-11 11:47:00,
2013-01-11 06:52:00,36.0,30.7,30.06,NE,45,0.0,3.8,81,0.00,,,0.00,WUHU21623XXSP,2013-01-11 11:52:00,
2013-01-11 06:58:00,36.1,30.6,30.07,NE,45,0.0,3.8,80,0.00,,,0.00,WUHU21623XXSP,2013-01-11 11:58:00,
2013-01-11 07:03:00,36.3,30.7,30.06,ENE,67,0.0,0.0,80,0.00,,,0.00,WUHU21623XXSP,2013-01-11 12:03:00,
2013-01-11 07:08:00,36.3,30.7,30.06,ENE,67,0.0,0.0,80,0.00,,,0.00,WUHU21623XXSP,2013-01-11 12:08:00,
2013-01-11 07:13:00,36.3,30.7,30.06,ENE,67,0.0,0.0,80,0.00,,,0.00,WUHU21623XXSP,2013-01-11 12:13:00,
2013-01-11 07:18:00,36.5,30.9,30.06,ENE,67,0.0,0.0,80,0.00,,,0.00,WUHU21623XXSP,2013-01-11 12:18:00,
2013-01-11 07:23:00,36.5,30.9,30.06,ENE,67,0.0,0.0,80,0.00,,,0.00,WUHU21623XXSP,2013-01-11 12:23:00,
2013-01-11 07:28:00,36.7,31.1,30.06,ENE,67,0.0,0.0,80,0.00,,,0.00,WUHU21623XXSP,2013-01-11 12:28:00,
2013-01-11 07:33:00,36.5,30.9,30.06,ENE,67,0.0,0.0,80,0.00,,,0.00,WUHU21623XXSP,2013-01-11 12:33:00,
2013-01-11 07:38:00,36.3,31.0,30.06,ENE,67,0.0,0.0,81,0.00,,,0.00,WUHU21623XXSP,2013-01-11 12:38:00,
2013-01-11 07:43:00,36.5,31.2,30.06,ENE,67,0.0,0.0,81,0.00,,,0.00,WUHU21623XXSP,2013-01-11 12:43:00,
2013-01-11 07:48:00,36.5,31.2,30.05,ENE,67,0.0,0.0,81,0.00,,,0.00,WUHU21623XXSP,2013-01-11 12:48:00,
2013-01-11 07:53:00,36.7,31.4,30.05,ENE,67,0.0,0.0,81,0.00,,,0.00,WUHU21623XXSP,2013-01-11 12:53:00,
2013-01-11 07:58:00,36.7,31.4,30.05,East,90,0.0,0.0,81,0.00,,,0.00,WUHU21623XXSP,2013-01-11 12:58:00,
2013-01-11 08:03:00,36.7,31.4,30.04,ESE,112,0.0,2.7,81,0.00,,,0.00,WUHU21623XXSP,2013-01-11 13:03:00,
2013-01-11 08:08:00,36.9,31.9,30.05,South,180,0.0,2.7,82,0.00,,,0.00,WUHU21623XXSP,2013-01-11 13:08:00,
2013-01-11 08:13:00,36.9,31.6,30.06,SSW,202,0.0,4.3,81,0.00,,,0.00,WUHU21623XXSP,2013-01-11 13:13:00,
2013-01-11 08:19:00,37.2,31.6,30.05,South,180,0.0,4.3,80,0.00,,,0.00,WUHU21623XXSP,2013-01-11 13:19:00,
2013-01-11 08:24:00,37.4,31.5,30.06,South,180,0.0,0.0,79,0.00,,,0.00,WUHU21623XXSP,2013-01-11 13:24:00,
2013-01-11 08:29:00,37.6,31.3,30.06,South,180,0.0,0.0,78,0.00,,,0.00,WUHU21623XXSP,2013-01-11 13:29:00,
2013-01-11 08:34:00,37.9,31.7,30.05,SSE,157,0.0,0.0,78,0.00,,,0.00,WUHU21623XXSP,2013-01-11 13:34:00,
2013-01-11 08:39:00,37.9,31.7,30.05,SE,135,0.0,0.0,78,0.00,,,0.00,WUHU21623XXSP,2013-01-11 13:39:00,
2013-01-11 08:44:00,38.1,31.5,30.05,SSE,157,4.3,4.9,77,0.00,,,0.00,WUHU21623XXSP,2013-01-11 13:44:00,
2013-01-11 08:49:00,38.3,31.7,30.04,SE,135,4.5,6.7,77,0.00,,,0.00,WUHU21623XXSP,2013-01-11 13:49:00,
2013-01-11 08:54:00,38.3,32.1,30.04,SE,135,6.7,6.9,78,0.00,,,0.00,WUHU21623XXSP,2013-01-11 13:54:00,
2013-01-11 08:59:00,38.3,32.4,30.03,SE,135,2.0,6.9,79,0.02,,,0.02,WUHU21623XXSP,2013-01-11 13:59:00,
2013-01-11 09:04:00,38.5,32.9,30.02,SE,135,6.0,8.1,80,0.02,,,0.02,WUHU21623XXSP,2013-01-11 14:04:00,
2013-01-11 09:09:00,38.7,33.4,30.02,SE,135,3.4,8.1,81,0.02,,,0.02,WUHU21623XXSP,2013-01-11 14:09:00,
2013-01-11 09:14:00,38.8,33.5,30.02,SE,135,6.3,9.2,81,0.02,,,0.02,WUHU21623XXSP,2013-01-11 14:14:00,
2013-01-11 09:19:00,39.0,34.0,30.01,SE,135,7.2,10.5,82,0.02,,,0.02,WUHU21623XXSP,2013-01-11 14:19:00,
2013-01-11 09:24:00,39.4,34.4,30.01,SE,135,9.2,11.0,82,0.02,,,0.02,WUHU21623XXSP,2013-01-11 14:24:00,
2013-01-11 09:29:00,39.7,35.0,30.01,SE,135,6.7,11.2,83,0.02,,,0.02,WUHU21623XXSP,2013-01-11 14:29:00,
2013-01-11 09:34:00,39.9,35.1,30.01,SE,135,7.8,11.2,83,0.02,,,0.02,WUHU21623XXSP,2013-01-11 14:34:00,
2013-01-11 09:39:00,40.1,35.0,30.00,SE,135,7.6,10.3,82,0.02,,,0.02,WUHU21623XXSP,2013-01-11 14:39:00,
2013-01-11 09:44:00,40.3,35.2,30.00,SE,135,7.6,10.3,82,0.02,,,0.02,WUHU21623XXSP,2013-01-11 14:44:00,
2013-01-11 09:49:00,40.8,35.4,30.00,SE,135,8.1,10.7,81,0.02,,,0.02,WUHU21623XXSP,2013-01-11 14:49:00,
2013-01-11 09:54:00,40.8,35.7,30.00,SE,135,4.7,10.7,82,0.00,,,0.02,WUHU21623XXSP,2013-01-11 14:54:00,
2013-01-11 09:59:00,41.2,35.4,30.00,SE,135,2.5,10.1,80,0.00,,,0.02,WUHU21623XXSP,2013-01-11 14:59:00,
2013-01-11 10:04:00,41.4,35.6,30.00,SE,135,5.8,10.1,80,0.00,,,0.02,WUHU21623XXSP,2013-01-11 15:04:00,
2013-01-11 10:09:00,41.5,35.8,29.99,SE,135,5.8,9.6,80,0.00,,,0.02,WUHU21623XXSP,2013-01-11 15:09:00,
2013-01-11 10:14:00,41.7,35.6,29.99,SE,135,6.9,9.6,79,0.00,,,0.02,WUHU21623XXSP,2013-01-11 15:14:00,
2013-01-11 10:19:00,41.9,35.8,29.99,SE,135,5.1,10.7,79,0.00,,,0.02,WUHU21623XXSP,2013-01-11 15:19:00,
2013-01-11 10:24:00,42.1,35.7,29.98,SSE,157,6.3,10.7,78,0.00,,,0.02,WUHU21623XXSP,2013-01-11 15:24:00,
2013-01-11 10:29:00,42.3,35.5,29.97,SE,135,5.6,8.9,77,0.00,,,0.02,WUHU21623XXSP,2013-01-11 15:29:00,
2013-01-11 10:34:00,42.4,35.7,29.97,SE,135,5.4,9.2,77,0.00,,,0.02,WUHU21623XXSP,2013-01-11 15:34:00,
2013-01-11 10:40:00,42.6,35.6,29.97,SSE,157,4.7,9.2,76,0.00,,,0.02,WUHU21623XXSP,2013-01-11 15:40:00,
2013-01-11 10:45:00,42.6,35.6,29.97,SSE,157,4.0,9.6,76,0.00,,,0.02,WUHU21623XXSP,2013-01-11 15:45:00,
2013-01-11 10:50:00,43.0,35.9,29.96,SE,135,8.5,9.6,76,0.00,,,0.02,WUHU21623XXSP,2013-01-11 15:50:00,
2013-01-11 10:55:00,43.0,35.6,29.96,SE,135,7.6,9.6,75,0.00,,,0.02,WUHU21623XXSP,2013-01-11 15:55:00,
2013-01-11 11:00:00,43.3,35.4,29.95,SSE,157,7.4,11.2,74,0.00,,,0.02,WUHU21623XXSP,2013-01-11 16:00:00,
2013-01-11 11:05:00,43.3,35.6,29.95,SE,135,9.6,11.2,74,0.00,,,0.02,WUHU21623XXSP,2013-01-11 16:05:00,
2013-01-11 11:10:00,43.3,35.6,29.94,SE,135,5.8,11.2,74,0.00,,,0.02,WUHU21623XXSP,2013-01-11 16:10:00,
2013-01-11 11:15:00,43.0,35.8,29.94,SSE,157,6.0,11.2,76,0.00,,,0.02,WUHU21623XXSP,2013-01-11 16:15:00,
2013-01-11 11:20:00,42.8,36.1,29.93,SSE,157,3.8,8.3,77,0.00,,,0.02,WUHU21623XXSP,2013-01-11 16:20:00,
2013-01-11 11:25:00,42.6,36.2,29.93,SE,135,6.0,7.4,78,0.00,,,0.02,WUHU21623XXSP,2013-01-11 16:25:00,
2013-01-11 11:30:00,42.6,36.5,29.93,SSE,157,1.6,6.9,79,0.00,,,0.02,WUHU21623XXSP,2013-01-11 16:30:00,
2013-01-11 11:35:00,43.0,37.2,29.92,SSE,157,0.9,6.5,80,0.00,,,0.02,WUHU21623XXSP,2013-01-11 16:35:00,
2013-01-11 11:40:00,43.5,37.8,29.92,SSE,157,0.0,6.5,80,0.00,,,0.02,WUHU21623XXSP,2013-01-11 16:40:00,
2013-01-11 11:45:00,44.2,38.1,29.91,SE,135,5.1,6.0,79,0.00,,,0.02,WUHU21623XXSP,2013-01-11 16:45:00,
2013-01-11 11:50:00,44.4,38.3,29.91,SSE,157,6.5,7.6,79,0.00,,,0.02,WUHU21623XXSP,2013-01-11 16:50:00,
2013-01-11 11:55:00,44.4,38.0,29.90,SSE,157,6.9,7.6,78,0.00,,,0.02,WUHU21623XXSP,2013-01-11 16:55:00,
2013-01-11 12:00:00,44.8,38.3,29.90,SSE,157,7.6,9.8,78,0.00,,,0.02,WUHU21623XXSP,2013-01-11 17:00:00,
2013-01-11 12:05:00,45.0,38.5,29.89,South,180,6.5,9.8,78,0.00,,,0.02,WUHU21623XXSP,2013-01-11 17:05:00,
2013-01-11 12:10:00,45.3,38.9,29.89,SSE,157,2.7,7.4,78,0.00,,,0.02,WUHU21623XXSP,2013-01-11 17:10:00,
2013-01-11 12:15:00,45.7,39.2,29.89,SSE,157,0.7,7.6,78,0.00,,,0.02,WUHU21623XXSP,2013-01-11 17:15:00,
2013-01-11 12:20:00,46.0,39.6,29.88,South,180,4.5,7.6,78,0.00,,,0.02,WUHU21623XXSP,2013-01-11 17:20:00,
2013-01-11 12:25:00,46.2,39.4,29.88,South,180,8.1,8.1,77,0.00,,,0.02,WUHU21623XXSP,2013-01-11 17:25:00,
2013-01-11 12:30:00,46.2,39.4,29.88,SSW,202,8.3,9.8,77,0.00,,,0.02,WUHU21623XXSP,2013-01-11 17:30:00,
2013-01-11 12:35:00,46.6,39.8,29.87,South,180,2.5,9.8,77,0.00,,,0.02,WUHU21623XXSP,2013-01-11 17:35:00,
2013-01-11 12:40:00,47.1,40.1,29.87,South,180,8.1,10.7,77,0.00,,,0.02,WUHU21623XXSP,2013-01-11 17:40:00,
2013-01-11 12:45:00,47.5,40.6,29.87,South,180,6.0,10.7,77,0.00,,,0.02,WUHU21623XXSP,2013-01-11 17:45:00,
2013-01-11 12:51:00,48.0,41.1,29.86,SSE,157,6.7,13.2,77,0.00,,,0.02,WUHU21623XXSP,2013-01-11 17:51:00,
2013-01-11 12:56:00,48.4,40.9,29.86,South,180,8.5,13.2,76,0.00,,,0.02,WUHU21623XXSP,2013-01-11 17:56:00,
2013-01-11 13:01:00,49.1,41.8,29.85,SSE,157,15.0,16.6,76,0.00,,,0.02,WUHU21623XXSP,2013-01-11 18:01:00,
2013-01-11 13:06:00,49.8,42.2,29.85,SSE,157,12.5,21.5,75,0.00,,,0.02,WUHU21623XXSP,2013-01-11 18:06:00,
2013-01-11 13:11:00,50.4,42.2,29.85,South,180,7.6,21.5,74,0.00,,,0.02,WUHU21623XXSP,2013-01-11 18:11:00,
2013-01-11 13:16:00,50.5,42.2,29.84,South,180,14.8,17.4,73,0.00,,,0.02,WUHU21623XXSP,2013-01-11 18:16:00,
2013-01-11 13:21:00,50.5,41.9,29.84,SSE,157,16.8,23.3,72,0.00,,,0.02,WUHU21623XXSP,2013-01-11 18:21:00,
2013-01-11 13:26:00,50.2,42.2,29.84,South,180,7.8,23.3,74,0.00,,,0.02,WUHU21623XXSP,2013-01-11 18:26:00,
2013-01-11 13:31:00,49.8,42.2,29.84,SSW,202,11.2,22.6,75,0.00,,,0.02,WUHU21623XXSP,2013-01-11 18:31:00,
2013-01-11 13:36:00,49.6,42.3,29.84,South,180,11.2,22.6,76,0.00,,,0.02,WUHU21623XXSP,2013-01-11 18:36:00,
2013-01-11 13:41:00,49.6,42.3,29.84,South,180,13.2,19.2,76,0.00,,,0.02,WUHU21623XXSP,2013-01-11 18:41:00,
2013-01-11 13:46:00,49.6,42.7,29.84,SSE,157,15.9,21.3,77,0.00,,,0.02,WUHU21623XXSP,2013-01-11 18:46:00,
2013-01-11 13:51:00,49.6,42.7,29.84,South,180,15.7,22.6,77,0.00,,,0.02,WUHU21623XXSP,2013-01-11 18:51:00,
2013-01-11 13:56:00,49.3,42.7,29.84,South,180,11.2,22.6,78,0.00,,,0.02,WUHU21623XXSP,2013-01-11 18:56:00,
2013-01-11 14:01:00,49.1,42.8,29.83,South,180,16.8,20.6,79,0.00,,,0.02,WUHU21623XXSP,2013-01-11 19:01:00,
2013-01-11 14:06:00,48.9,43.0,29.83,South,180,16.6,20.6,80,0.00,,,0.02,WUHU21623XXSP,2013-01-11 19:06:00,
2013-01-11 14:11:00,48.6,42.9,29.83,South,180,17.4,20.8,81,0.00,,,0.02,WUHU21623XXSP,2013-01-11 19:11:00,
2013-01-11 14:16:00,48.6,43.3,29.83,South,180,12.3,23.3,82,0.00,,,0.02,WUHU21623XXSP,2013-01-11 19:16:00,
2013-01-11 14:21:00,48.6,43.6,29.83,South,180,13.2,24.8,83,0.00,,,0.02,WUHU21623XXSP,2013-01-11 19:21:00,
2013-01-11 14:26:00,48.6,43.6,29.82,South,180,21.0,24.8,83,0.00,,,0.02,WUHU21623XXSP,2013-01-11 19:26:00,
2013-01-11 14:31:00,48.7,43.8,29.83,South,180,15.7,28.6,83,0.00,,,0.02,WUHU21623XXSP,2013-01-11 19:31:00,
2013-01-11 14:36:00,48.4,43.7,29.82,South,180,15.0,28.6,84,0.00,,,0.02,WUHU21623XXSP,2013-01-11 19:36:00,
2013-01-11 14:41:00,47.8,43.2,29.84,SSW,202,11.2,21.7,84,0.02,,,0.04,WUHU21623XXSP,2013-01-11 19:41:00,
2013-01-11 14:46:00,47.5,42.9,29.84,SSW,202,8.5,21.7,84,0.02,,,0.04,WUHU21623XXSP,2013-01-11 19:46:00,
2013-01-11 14:52:00,47.3,43.0,29.83,SSW,202,11.9,20.6,85,0.02,,,0.04,WUHU21623XXSP,2013-01-11 19:52:00,
2013-01-11 14:57:00,47.1,42.9,29.83,SSW,202,9.2,20.6,85,0.02,,,0.04,WUHU21623XXSP,2013-01-11 19:57:00,
2013-01-11 15:02:00,47.1,43.2,29.83,SSE,157,14.1,22.8,86,0.02,,,0.04,WUHU21623XXSP,2013-01-11 20:02:00,
2013-01-11 15:07:00,47.1,43.2,29.83,South,180,17.9,22.8,86,0.02,,,0.04,WUHU21623XXSP,2013-01-11 20:07:00,
2013-01-11 15:12:00,47.1,43.2,29.82,SSE,157,12.5,19.5,86,0.02,,,0.04,WUHU21623XXSP,2013-01-11 20:12:00,
2013-01-11 15:17:00,47.1,43.2,29.81,SSE,157,11.4,17.0,86,0.02,,,0.04,WUHU21623XXSP,2013-01-11 20:17:00,
2013-01-11 15:22:00,46.9,43.3,29.81,SSE,157,10.7,15.9,87,0.02,,,0.04,WUHU21623XXSP,2013-01-11 20:22:00,
2013-01-11 15:27:00,46.9,43.3,29.81,SSW,202,9.8,15.9,87,0.02,,,0.04,WUHU21623XXSP,2013-01-11 20:27:00,
2013-01-11 15:32:00,46.9,43.0,29.82,South,180,9.2,13.4,86,0.02,,,0.04,WUHU21623XXSP,2013-01-11 20:32:00,
2013-01-11 15:37:00,46.9,43.0,29.82,SW,225,7.6,13.4,86,0.00,,,0.04,WUHU21623XXSP,2013-01-11 20:37:00,
2013-01-11 15:42:00,46.9,43.0,29.83,SW,225,6.3,12.5,86,0.00,,,0.04,WUHU21623XXSP,2013-01-11 20:42:00,
2013-01-11 15:47:00,46.9,43.0,29.83,SW,225,5.8,11.6,86,0.00,,,0.04,WUHU21623XXSP,2013-01-11 20:47:00,
2013-01-11 15:52:00,47.1,43.2,29.84,SSW,202,7.4,10.3,86,0.00,,,0.04,WUHU21623XXSP,2013-01-11 20:52:00,
2013-01-11 15:57:00,47.1,43.2,29.84,WSW,247,6.0,10.3,86,0.00,,,0.04,WUHU21623XXSP,2013-01-11 20:57:00,
2013-01-11 16:02:00,47.3,43.3,29.84,SSW,202,16.3,16.3,86,0.00,,,0.04,WUHU21623XXSP,2013-01-11 21:02:00,
2013-01-11 16:07:00,47.8,43.8,29.84,SW,225,19.0,26.6,86,0.00,,,0.04,WUHU21623XXSP,2013-01-11 21:07:00,
2013-01-11 16:12:00,47.8,43.5,29.84,SW,225,22.6,31.1,85,0.00,,,0.04,WUHU21623XXSP,2013-01-11 21:12:00,
2013-01-11 16:17:00,47.8,43.2,29.84,SSW,202,18.6,31.1,84,0.00,,,0.04,WUHU21623XXSP,2013-01-11 21:17:00,
2013-01-11 16:22:00,47.8,43.2,29.85,SW,225,7.2,25.9,84,0.00,,,0.04,WUHU21623XXSP,2013-01-11 21:22:00,
2013-01-11 16:27:00,47.5,42.9,29.85,SW,225,10.7,20.8,84,0.00,,,0.04,WUHU21623XXSP,2013-01-11 21:27:00,
2013-01-11 16:32:00,47.3,42.7,29.85,SW,225,13.6,20.8,84,0.00,,,0.04,WUHU21623XXSP,2013-01-11 21:32:00,
2013-01-11 16:37:00,47.1,42.5,29.85,SSW,202,12.8,23.3,84,0.00,,,0.04,WUHU21623XXSP,2013-01-11 21:37:00,
2013-01-11 16:42:00,46.9,42.7,29.85,SW,225,13.2,23.3,85,0.00,,,0.04,WUHU21623XXSP,2013-01-11 21:42:00,
2013-01-11 16:47:00,46.8,42.5,29.85,SSW,202,11.4,20.1,85,0.00,,,0.04,WUHU21623XXSP,2013-01-11 21:47:00,
2013-01-11 16:52:00,46.6,42.6,29.85,SSW,202,6.0,16.3,86,0.00,,,0.04,WUHU21623XXSP,2013-01-11 21:52:00,
2013-01-11 16:57:00,46.2,42.3,29.85,South,180,8.9,15.0,86,0.00,,,0.04,WUHU21623XXSP,2013-01-11 21:57:00,
2013-01-11 17:02:00,46.0,42.1,29.85,SW,225,10.7,13.9,86,0.00,,,0.04,WUHU21623XXSP,2013-01-11 22:02:00,
2013-01-11 17:07:00,46.0,42.1,29.85,South,180,11.6,13.6,86,0.00,,,0.04,WUHU21623XXSP,2013-01-11 22:07:00,
2013-01-11 17:12:00,45.7,42.2,29.85,SSW,202,16.6,16.6,87,0.00,,,0.04,WUHU21623XXSP,2013-01-11 22:12:00,
2013-01-11 17:17:00,45.9,42.2,29.85,SSW,202,12.5,17.0,87,0.00,,,0.04,WUHU21623XXSP,2013-01-11 22:17:00,
2013-01-11 17:22:00,45.7,42.1,29.85,South,180,10.7,17.0,87,0.00,,,0.04,WUHU21623XXSP,2013-01-11 22:22:00,
2013-01-11 17:27:00,45.7,42.4,29.85,South,180,8.5,16.6,88,0.00,,,0.04,WUHU21623XXSP,2013-01-11 22:27:00,
2013-01-11 17:32:00,45.7,42.4,29.85,SSW,202,8.7,17.4,88,0.00,,,0.04,WUHU21623XXSP,2013-01-11 22:32:00,
2013-01-11 17:37:00,45.7,42.4,29.85,SSW,202,9.2,17.4,88,0.00,,,0.04,WUHU21623XXSP,2013-01-11 22:37:00,
2013-01-11 17:42:00,46.0,42.7,29.85,South,180,10.7,13.0,88,0.00,,,0.04,WUHU21623XXSP,2013-01-11 22:42:00,
2013-01-11 17:47:00,46.0,42.7,29.85,SSW,202,11.4,15.7,88,0.00,,,0.04,WUHU21623XXSP,2013-01-11 22:47:00,
2013-01-11 17:52:00,46.2,42.9,29.85,SSW,202,12.3,16.3,88,0.00,,,0.04,WUHU21623XXSP,2013-01-11 22:52:00,
2013-01-11 17:57:00,46.6,43.3,29.85,SSW,202,15.2,16.3,88,0.00,,,0.04,WUHU21623XXSP,2013-01-11 22:57:00,
2013-01-11 18:02:00,46.9,43.6,29.85,SSW,202,16.1,18.1,88,0.00,,,0.04,WUHU21623XXSP,2013-01-11 23:02:00,
2013-01-11 18:07:00,47.1,43.5,29.86,SSW,202,11.6,18.1,87,0.00,,,0.04,WUHU21623XXSP,2013-01-11 23:07:00,
2013-01-11 18:12:00,47.1,43.5,29.86,SSW,202,9.6,15.7,87,0.00,,,0.04,WUHU21623XXSP,2013-01-11 23:12:00,
2013-01-11 18:17:00,47.1,43.5,29.86,SSW,202,10.1,18.6,87,0.00,,,0.04,WUHU21623XXSP,2013-01-11 23:17:00,
2013-01-11 18:22:00,47.1,43.5,29.86,SSW,202,12.5,21.5,87,0.00,,,0.04,WUHU21623XXSP,2013-01-11 23:22:00,
2013-01-11 18:27:00,47.1,43.5,29.86,SSW,202,15.4,19.0,87,0.00,,,0.04,WUHU21623XXSP,2013-01-11 23:27:00,
2013-01-11 18:32:00,47.1,43.5,29.86,SSW,202,13.6,23.3,87,0.00,,,0.04,WUHU21623XXSP,2013-01-11 23:32:00,
2013-01-11 18:37:00,47.1,43.5,29.86,SSW,202,18.6,23.3,87,0.00,,,0.04,WUHU21623XXSP,2013-01-11 23:37:00,
2013-01-11 18:42:00,47.1,43.5,29.86,SSW,202,11.0,18.6,87,0.00,,,0.04,WUHU21623XXSP,2013-01-11 23:42:00,
2013-01-11 18:47:00,47.1,43.8,29.87,SW,225,9.4,16.3,88,0.00,,,0.04,WUHU21623XXSP,2013-01-11 23:47:00,
2013-01-11 18:52:00,47.3,44.0,29.87,SW,225,15.2,19.5,88,0.00,,,0.04,WUHU21623XXSP,2013-01-11 23:52:00,
2013-01-11 18:57:00,47.3,43.6,29.87,South,180,11.9,19.5,87,0.00,,,0.04,WUHU21623XXSP,2013-01-11 23:57:00,
2013-01-11 19:02:00,47.3,43.6,29.87,SSW,202,6.9,19.7,87,0.00,,,0.04,WUHU21623XXSP,2013-01-12 00:02:00,
2013-01-11 19:07:00,47.3,43.6,29.87,SSW,202,12.1,20.6,87,0.00,,,0.04,WUHU21623XXSP,2013-01-12 00:07:00,
2013-01-11 19:12:00,47.3,43.6,29.87,SSW,202,9.4,20.6,87,0.00,,,0.04,WUHU21623XXSP,2013-01-12 00:12:00,
2013-01-11 19:17:00,47.3,43.3,29.87,SSW,202,14.8,19.9,86,0.00,,,0.04,WUHU21623XXSP,2013-01-12 00:17:00,
2013-01-11 19:22:00,47.3,43.3,29.87,SSW,202,17.9,20.1,86,0.00,,,0.04,WUHU21623XXSP,2013-01-12 00:22:00,
2013-01-11 19:27:00,47.3,43.3,29.87,SSW,202,8.9,20.1,86,0.00,,,0.04,WUHU21623XXSP,2013-01-12 00:27:00,
2013-01-11 19:32:00,47.3,43.3,29.87,SSW,202,16.3,19.5,86,0.00,,,0.04,WUHU21623XXSP,2013-01-12 00:32:00,
2013-01-11 19:37:00,47.3,43.3,29.87,South,180,13.4,22.6,86,0.00,,,0.04,WUHU21623XXSP,2013-01-12 00:37:00,
2013-01-11 19:42:00,47.3,43.3,29.87,South,180,11.6,22.6,86,0.00,,,0.04,WUHU21623XXSP,2013-01-12 00:42:00,
2013-01-11 19:47:00,47.3,43.3,29.87,SSW,202,10.7,19.5,86,0.00,,,0.04,WUHU21623XXSP,2013-01-12 00:47:00,
2013-01-11 19:52:00,47.3,43.3,29.87,WSW,247,8.9,19.0,86,0.00,,,0.04,WUHU21623XXSP,2013-01-12 00:52:00,
2013-01-11 19:57:00,47.5,43.5,29.88,SW,225,9.6,19.0,86,0.00,,,0.04,WUHU21623XXSP,2013-01-12 00:57:00,
2013-01-11 20:03:00,47.5,43.5,29.88,SW,225,13.4,18.6,86,0.00,,,0.04,WUHU21623XXSP,2013-01-12 01:03:00,
2013-01-11 20:08:00,47.5,43.5,29.88,SSW,202,11.9,17.9,86,0.00,,,0.04,WUHU21623XXSP,2013-01-12 01:08:00,
2013-01-11 20:13:00,47.5,43.8,29.88,SW,225,9.4,16.3,87,0.00,,,0.04,WUHU21623XXSP,2013-01-12 01:13:00,
2013-01-11 20:18:00,47.5,43.8,29.88,SSW,202,15.9,18.1,87,0.00,,,0.04,WUHU21623XXSP,2013-01-12 01:18:00,
2013-01-11 20:23:00,47.5,43.8,29.88,SW,225,10.5,18.1,87,0.00,,,0.04,WUHU21623XXSP,2013-01-12 01:23:00,
2013-01-11 20:28:00,47.5,43.8,29.88,SW,225,8.3,13.4,87,0.00,,,0.04,WUHU21623XXSP,2013-01-12 01:28:00,
2013-01-11 20:33:00,47.5,43.8,29.88,SW,225,7.4,13.6,87,0.00,,,0.04,WUHU21623XXSP,2013-01-12 01:33:00,
2013-01-11 20:38:00,47.7,44.0,29.88,SSW,202,12.5,13.6,87,0.00,,,0.04,WUHU21623XXSP,2013-01-12 01:38:00,
2013-01-11 20:43:00,47.8,44.2,29.88,SSW,202,13.2,19.5,87,0.00,,,0.04,WUHU21623XXSP,2013-01-12 01:43:00,
2013-01-11 20:48:00,47.8,44.2,29.88,SW,225,5.1,19.5,87,0.00,,,0.04,WUHU21623XXSP,2013-01-12 01:48:00,
2013-01-11 20:53:00,48.0,44.3,29.88,SW,225,11.9,15.9,87,0.00,,,0.04,WUHU21623XXSP,2013-01-12 01:53:00,
2013-01-11 20:58:00,48.0,44.3,29.88,SSW,202,12.1,15.0,87,0.00,,,0.04,WUHU21623XXSP,2013-01-12 01:58:00,
2013-01-11 21:03:00,48.0,44.5,29.88,SW,225,7.4,14.8,87,0.00,,,0.04,WUHU21623XXSP,2013-01-12 02:03:00,
2013-01-11 21:08:00,48.2,44.5,29.88,SSW,202,3.4,14.8,87,0.00,,,0.04,WUHU21623XXSP,2013-01-12 02:08:00,
2013-01-11 21:13:00,48.0,44.3,29.88,WSW,247,7.6,11.9,87,0.00,,,0.04,WUHU21623XXSP,2013-01-12 02:13:00,
2013-01-11 21:18:00,48.0,44.3,29.88,SSW,202,9.2,12.5,87,0.00,,,0.04,WUHU21623XXSP,2013-01-12 02:18:00,
2013-01-11 21:23:00,48.0,44.3,29.88,SW,225,8.1,13.6,87,0.00,,,0.04,WUHU21623XXSP,2013-01-12 02:23:00,
2013-01-11 21:28:00,48.0,44.3,29.88,SW,225,8.1,13.6,87,0.00,,,0.04,WUHU21623XXSP,2013-01-12 02:28:00,
2013-01-11 21:33:00,48.0,44.3,29.88,SW,225,8.7,12.8,87,0.00,,,0.04,WUHU21623XXSP,2013-01-12 02:33:00,
2013-01-11 21:38:00,48.0,44.3,29.88,SW,225,8.5,13.4,87,0.00,,,0.04,WUHU21623XXSP,2013-01-12 02:38:00,
2013-01-11 21:43:00,48.0,44.3,29.88,SW,225,11.2,13.9,87,0.00,,,0.04,WUHU21623XXSP,2013-01-12 02:43:00,
2013-01-11 21:48:00,48.2,44.5,29.88,SW,225,7.2,13.9,87,0.00,,,0.04,WUHU21623XXSP,2013-01-12 02:48:00,
2013-01-11 21:53:00,48.2,44.5,29.88,SW,225,5.8,12.8,87,0.00,,,0.04,WUHU21623XXSP,2013-01-12 02:53:00,
2013-01-11 21:58:00,48.2,44.5,29.88,SW,225,7.2,14.3,87,0.00,,,0.04,WUHU21623XXSP,2013-01-12 02:58:00,
2013-01-11 22:03:00,48.2,44.5,29.88,SW,225,10.7,14.3,87,0.00,,,0.04,WUHU21623XXSP,2013-01-12 03:03:00,
2013-01-11 22:08:00,48.4,44.7,29.89,SW,225,8.1,14.1,87,0.00,,,0.04,WUHU21623XXSP,2013-01-12 03:08:00,
2013-01-11 22:13:00,48.4,44.7,29.89,SW,225,8.5,15.7,87,0.00,,,0.04,WUHU21623XXSP,2013-01-12 03:13:00,
2013-01-11 22:18:00,48.6,44.9,29.89,SSW,202,10.5,15.7,87,0.00,,,0.04,WUHU21623XXSP,2013-01-12 03:18:00,
2013-01-11 22:23:00,48.7,45.0,29.89,SW,225,10.3,15.2,87,0.00,,,0.04,WUHU21623XXSP,2013-01-12 03:23:00,
2013-01-11 22:28:00,48.9,45.2,29.89,WSW,247,7.2,16.1,87,0.00,,,0.04,WUHU21623XXSP,2013-01-12 03:28:00,
2013-01-11 22:33:00,49.1,45.4,29.89,SW,225,10.1,16.1,87,0.00,,,0.04,WUHU21623XXSP,2013-01-12 03:33:00,
2013-01-11 22:38:00,49.1,45.4,29.89,WSW,247,6.7,16.1,87,0.00,,,0.04,WUHU21623XXSP,2013-01-12 03:38:00,
2013-01-11 22:43:00,49.1,45.4,29.89,SW,225,8.9,16.1,87,0.00,,,0.04,WUHU21623XXSP,2013-01-12 03:43:00,
2013-01-11 22:48:00,48.9,45.2,29.89,SW,225,10.7,15.2,87,0.00,,,0.04,WUHU21623XXSP,2013-01-12 03:48:00,
2013-01-11 22:53:00,48.7,45.0,29.89,SSW,202,8.3,17.0,87,0.00,,,0.04,WUHU21623XXSP,2013-01-12 03:53:00,
2013-01-11 22:58:00,48.7,45.0,29.88,SSW,202,11.0,17.0,87,0.00,,,0.04,WUHU21623XXSP,2013-01-12 03:58:00,
2013-01-11 23:03:00,48.9,45.2,29.88,SSW,202,8.1,17.9,87,0.00,,,0.04,WUHU21623XXSP,2013-01-12 04:03:00,
2013-01-11 23:08:00,48.9,45.2,29.89,SSW,202,9.2,17.9,87,0.00,,,0.04,WUHU21623XXSP,2013-01-12 04:08:00,
2013-01-11 23:13:00,48.7,45.0,29.89,SSW,202,7.4,15.4,87,0.00,,,0.04,WUHU21623XXSP,2013-01-12 04:13:00,
2013-01-11 23:18:00,48.7,45.0,29.88,SSW,202,5.8,15.4,87,0.00,,,0.04,WUHU21623XXSP,2013-01-12 04:18:00,
2013-01-11 23:23:00,48.6,44.9,29.89,SW,225,12.1,13.0,87,0.00,,,0.04,WUHU21623XXSP,2013-01-12 04:23:00,
2013-01-11 23:28:00,48.6,44.9,29.89,SSW,202,7.4,15.9,87,0.00,,,0.04,WUHU21623XXSP,2013-01-12 04:28:00,
2013-01-11 23:33:00,48.4,44.7,29.87,SSW,202,9.2,15.9,87,0.00,,,0.04,WUHU21623XXSP,2013-01-12 04:33:00,
2013-01-11 23:38:00,48.6,44.9,29.87,SSW,202,7.8,15.2,87,0.00,,,0.04,WUHU21623XXSP,2013-01-12 04:38:00,
2013-01-11 23:43:00,48.4,44.7,29.88,SW,225,7.8,13.0,87,0.00,,,0.04,WUHU21623XXSP,2013-01-12 04:43:00,
2013-01-11 23:48:00,48.4,45.0,29.89,SW,225,7.2,12.8,88,0.00,,,0.04,WUHU21623XXSP,2013-01-12 04:48:00,
2013-01-11 23:53:00,48.2,44.9,29.89,SW,225,12.3,15.7,88,0.00,,,0.04,WUHU21623XXSP,2013-01-12 04:53:00,
2013-01-11 23:58:00,48.0,44.7,29.89,SW,225,9.4,15.7,88,0.00,,,0.04,WUHU21623XXSP,2013-01-12 04:58:00,